Time;durP1;ratioP1;P1;durP2;ratioP2;P2;SDS_P1;SDS_P2;PMS_P1;PMS_P2;Temp;Humidity;BMP_temperature;BMP_pressure;BME280_temperature;BME280_humidity;BME280_pressure;Samples;Min_cycle;Max_cycle;Signal;HPM_P1;HPM_P2
2022/12/23 00:01:17;;;;;;;43.05;16.90;;;;;;;;;;6240107;28;20512;-55
2022/12/23 00:04:18;;;;;;;44.17;17.95;;;;;;;;;;6253921;28;20052;-59
2022/12/23 00:07:18;;;;;;;46.72;17.67;;;;;;;;;;6265480;28;20048;-59
2022/12/23 00:10:19;;;;;;;42.25;16.25;;;;;;;;;;6266361;28;20057;-55
2022/12/23 00:16:38;;;;;;;41.15;15.77;;;;;;;;;;6268650;28;20099;-58
2022/12/23 00:19:39;;;;;;;38.45;15.73;;;;;;;;;;6269950;28;20132;-54
2022/12/23 00:26:00;;;;;;;38.45;15.95;;;;;;;;;;6269369;28;20143;-56
2022/12/23 00:29:00;;;;;;;42.28;17.42;;;;;;;;;;6264812;28;20476;-55
2022/12/23 00:32:01;;;;;;;38.75;15.75;;;;;;;;;;6266527;28;20049;-59
2022/12/23 00:35:02;;;;;;;44.17;15.98;;;;;;;;;;6268280;28;20757;-56
2022/12/23 00:38:03;;;;;;;43.00;18.83;;;;;;;;;;6244088;28;20049;-59
2022/12/23 00:44:29;;;;;;;44.45;17.23;;;;;;;;;;6268081;28;20056;-54
2022/12/23 00:50:51;;;;;;;43.08;17.63;;;;;;;;;;6269292;28;20059;-56
2022/12/23 00:53:51;;;;;;;44.65;16.85;;;;;;;;;;6268355;28;20049;-56
2022/12/23 00:56:53;;;;;;;50.72;17.60;;;;;;;;;;6267762;28;20138;-56
2022/12/23 00:59:54;;;;;;;50.42;23.80;;;;;;;;;;6268878;28;20041;-56
2022/12/23 01:06:14;;;;;;;50.67;20.13;;;;;;;;;;6266040;28;20122;-56
2022/12/23 01:09:15;;;;;;;44.17;18.55;;;;;;;;;;6268084;28;20801;-56
2022/12/23 01:12:16;;;;;;;54.20;20.08;;;;;;;;;;6264961;28;20135;-60
2022/12/23 01:15:16;;;;;;;60.10;25.27;;;;;;;;;;6259977;28;20553;-59
2022/12/23 01:18:17;;;;;;;55.00;20.65;;;;;;;;;;6265363;28;20045;-56
2022/12/23 01:21:18;;;;;;;51.40;21.00;;;;;;;;;;6262763;28;20045;-56
2022/12/23 01:24:18;;;;;;;57.45;22.60;;;;;;;;;;6267864;28;20551;-56
2022/12/23 01:27:19;;;;;;;70.03;25.63;;;;;;;;;;6259913;28;20179;-55
2022/12/23 01:30:19;;;;;;;60.83;23.83;;;;;;;;;;6262111;28;20044;-59
2022/12/23 01:33:20;;;;;;;57.85;22.67;;;;;;;;;;6260604;28;20052;-56
2022/12/23 01:36:22;;;;;;;61.22;22.70;;;;;;;;;;6261762;28;20049;-54
2022/12/23 01:39:23;;;;;;;65.82;25.13;;;;;;;;;;6266368;28;20053;-55
2022/12/23 01:45:43;;;;;;;67.05;24.70;;;;;;;;;;6262554;28;20395;-61
2022/12/23 01:48:50;;;;;;;73.10;28.98;;;;;;;;;;6266037;28;20110;-60
2022/12/23 01:51:51;;;;;;;53.90;21.63;;;;;;;;;;6263431;28;20074;-57
2022/12/23 01:54:53;;;;;;;59.60;22.15;;;;;;;;;;6260551;28;20045;-53
2022/12/23 01:57:59;;;;;;;62.40;24.45;;;;;;;;;;6267881;28;20166;-55
2022/12/23 02:04:23;;;;;;;52.05;20.33;;;;;;;;;;6267161;28;20049;-52
2022/12/23 02:11:17;;;;;;;52.28;19.92;;;;;;;;;;6264245;28;20071;-54
2022/12/23 02:18:15;;;;;;;47.40;18.70;;;;;;;;;;6261242;28;20094;-53
2022/12/23 02:21:35;;;;;;;50.78;17.88;;;;;;;;;;6258284;28;20043;-54
2022/12/23 02:25:10;;;;;;;45.08;17.38;;;;;;;;;;6267890;28;20056;-61
2022/12/23 02:28:13;;;;;;;39.88;15.88;;;;;;;;;;6257448;28;20131;-55
2022/12/23 02:31:33;;;;;;;39.83;15.93;;;;;;;;;;6258745;28;20037;-54
2022/12/23 02:34:39;;;;;;;45.00;16.92;;;;;;;;;;6263941;28;20060;-55
2022/12/23 02:38:01;;;;;;;45.85;19.92;;;;;;;;;;6262641;28;20041;-58
2022/12/23 02:41:08;;;;;;;39.80;15.13;;;;;;;;;;6263119;28;20049;-58
2022/12/23 02:44:40;;;;;;;39.38;16.45;;;;;;;;;;6265853;28;20063;-54
2022/12/23 02:47:55;;;;;;;43.33;16.42;;;;;;;;;;6263305;28;20088;-56
2022/12/23 02:50:57;;;;;;;39.05;15.52;;;;;;;;;;6262115;28;20049;-56
2022/12/23 02:54:01;;;;;;;44.65;16.98;;;;;;;;;;6259081;28;20487;-55
2022/12/23 02:57:04;;;;;;;40.05;15.25;;;;;;;;;;6259122;28;20089;-56
2022/12/23 03:00:05;;;;;;;42.25;16.45;;;;;;;;;;6260773;28;20053;-54
2022/12/23 03:03:06;;;;;;;42.87;20.37;;;;;;;;;;6242027;28;20140;-54
2022/12/23 03:06:18;;;;;;;52.90;21.48;;;;;;;;;;6260031;28;20052;-55
2022/12/23 03:09:48;;;;;;;40.80;16.23;;;;;;;;;;6264543;28;20053;-55
2022/12/23 03:13:02;;;;;;;41.45;15.95;;;;;;;;;;6256989;28;20056;-55
2022/12/23 03:16:20;;;;;;;40.95;14.90;;;;;;;;;;6258982;28;20048;-55
2022/12/23 03:19:31;;;;;;;40.75;17.05;;;;;;;;;;6264129;28;20049;-57
2022/12/23 03:22:35;;;;;;;41.58;16.13;;;;;;;;;;6260333;28;20055;-56
2022/12/23 03:25:43;;;;;;;36.25;14.30;;;;;;;;;;6261506;28;20056;-61
2022/12/23 03:29:04;;;;;;;37.78;15.65;;;;;;;;;;6263152;28;22242;-54
2022/12/23 03:32:06;;;;;;;36.35;14.43;;;;;;;;;;6264547;28;20045;-54
2022/12/23 03:35:11;;;;;;;35.60;15.40;;;;;;;;;;6269869;28;20045;-53
2022/12/23 03:38:16;;;;;;;49.25;18.52;;;;;;;;;;6263702;28;20128;-56
2022/12/23 03:41:22;;;;;;;38.40;15.93;;;;;;;;;;6269334;28;20041;-55
2022/12/23 03:44:35;;;;;;;37.22;14.98;;;;;;;;;;6265885;28;20060;-59
2022/12/23 03:48:01;;;;;;;40.42;15.25;;;;;;;;;;6260616;28;20045;-60
2022/12/23 03:51:09;;;;;;;33.90;15.38;;;;;;;;;;6270694;28;20391;-60
2022/12/23 03:54:16;;;;;;;30.08;12.25;;;;;;;;;;6265991;28;20106;-54
2022/12/23 03:57:18;;;;;;;31.08;12.95;;;;;;;;;;6268140;28;20106;-59
2022/12/23 04:00:19;;;;;;;33.47;13.48;;;;;;;;;;6269349;28;20057;-57
2022/12/23 04:03:28;;;;;;;31.38;13.30;;;;;;;;;;6266993;28;20098;-54
2022/12/23 04:06:38;;;;;;;28.33;13.45;;;;;;;;;;6269214;28;20049;-56
2022/12/23 04:09:39;;;;;;;33.85;14.90;;;;;;;;;;6270382;28;20061;-54
2022/12/23 04:12:41;;;;;;;25.93;12.90;;;;;;;;;;6265342;28;20041;-61
2022/12/23 04:15:42;;;;;;;30.77;13.88;;;;;;;;;;6263433;28;20067;-53
2022/12/23 04:18:43;;;;;;;29.48;13.73;;;;;;;;;;6266811;28;20405;-54
2022/12/23 04:21:43;;;;;;;30.55;13.70;;;;;;;;;;6266852;28;20049;-56
2022/12/23 04:24:44;;;;;;;35.53;16.17;;;;;;;;;;6264439;28;20140;-56
2022/12/23 04:27:44;;;;;;;31.10;14.25;;;;;;;;;;6264705;28;20044;-56
2022/12/23 04:30:45;;;;;;;30.33;13.30;;;;;;;;;;6262833;28;20041;-53
2022/12/23 04:33:45;;;;;;;36.03;18.23;;;;;;;;;;6262463;28;20057;-55
2022/12/23 04:36:46;;;;;;;35.97;15.05;;;;;;;;;;6268509;28;20072;-52
2022/12/23 04:39:46;;;;;;;32.85;16.95;;;;;;;;;;6262905;28;20041;-55
2022/12/23 04:42:47;;;;;;;34.47;17.77;;;;;;;;;;6261693;28;20048;-56
2022/12/23 04:45:51;;;;;;;39.80;21.17;;;;;;;;;;6261002;28;20644;-55
2022/12/23 04:48:51;;;;;;;47.42;26.27;;;;;;;;;;6261743;28;20044;-56
2022/12/23 04:51:52;;;;;;;50.88;22.23;;;;;;;;;;6262192;28;20492;-59
2022/12/23 04:54:53;;;;;;;54.70;26.20;;;;;;;;;;6263935;28;20056;-56
2022/12/23 04:57:53;;;;;;;66.00;33.47;;;;;;;;;;6265838;28;20103;-54
2022/12/23 05:01:02;;;;;;;88.40;39.70;;;;;;;;;;6265054;28;20077;-52
2022/12/23 05:04:03;;;;;;;117.25;46.65;;;;;;;;;;6251182;28;20049;-60
2022/12/23 05:07:03;;;;;;;90.53;39.65;;;;;;;;;;6263747;28;20127;-55
2022/12/23 05:10:04;;;;;;;83.47;39.60;;;;;;;;;;6262478;28;20099;-55
2022/12/23 05:13:05;;;;;;;65.95;34.05;;;;;;;;;;6261410;28;20527;-56
2022/12/23 05:16:05;;;;;;;57.90;29.48;;;;;;;;;;6262816;28;20045;-56
2022/12/23 05:19:06;;;;;;;69.30;35.80;;;;;;;;;;6267431;28;20049;-52
2022/12/23 05:22:07;;;;;;;68.28;34.97;;;;;;;;;;6264617;28;20076;-58
2022/12/23 05:25:08;;;;;;;66.60;31.73;;;;;;;;;;6261380;28;20091;-56
2022/12/23 05:28:08;;;;;;;63.10;30.55;;;;;;;;;;6262340;28;20053;-57
2022/12/23 05:31:10;;;;;;;54.13;23.92;;;;;;;;;;6267086;28;20056;-61
2022/12/23 05:34:10;;;;;;;84.40;34.60;;;;;;;;;;6263847;28;20045;-56
2022/12/23 05:37:11;;;;;;;71.30;30.88;;;;;;;;;;6265449;28;20128;-57
2022/12/23 05:40:11;;;;;;;51.60;21.80;;;;;;;;;;6264369;28;20381;-57
2022/12/23 05:43:13;;;;;;;61.33;21.45;;;;;;;;;;6260079;28;20045;-58
2022/12/23 05:46:13;;;;;;;61.53;27.60;;;;;;;;;;6262401;28;20068;-56
2022/12/23 05:49:14;;;;;;;52.65;27.23;;;;;;;;;;6259424;28;20037;-60
2022/12/23 05:52:15;;;;;;;36.17;18.98;;;;;;;;;;6256507;28;20067;-57
2022/12/23 05:55:15;;;;;;;38.45;19.05;;;;;;;;;;6261874;28;20502;-59
2022/12/23 05:58:16;;;;;;;41.20;17.80;;;;;;;;;;6269710;28;20435;-58
2022/12/23 06:01:16;;;;;;;34.47;16.83;;;;;;;;;;6261729;28;20124;-57
2022/12/23 06:04:17;;;;;;;27.27;11.35;;;;;;;;;;6262107;28;20408;-58
2022/12/23 06:07:18;;;;;;;29.55;12.70;;;;;;;;;;6265038;28;20519;-58
2022/12/23 06:10:18;;;;;;;30.13;13.18;;;;;;;;;;6261577;28;20049;-57
2022/12/23 06:13:19;;;;;;;23.70;11.20;;;;;;;;;;6260945;28;20095;-62
2022/12/23 06:16:19;;;;;;;37.85;17.13;;;;;;;;;;6261023;28;20068;-60
2022/12/23 06:19:20;;;;;;;45.00;18.65;;;;;;;;;;6261044;28;20045;-58
2022/12/23 06:22:22;;;;;;;32.67;14.07;;;;;;;;;;6259364;28;20056;-58
2022/12/23 06:25:23;;;;;;;40.58;15.50;;;;;;;;;;6260177;28;20041;-59
2022/12/23 06:28:23;;;;;;;29.05;12.05;;;;;;;;;;6259482;28;20063;-58
2022/12/23 06:31:24;;;;;;;31.20;13.05;;;;;;;;;;6259349;28;20171;-61
2022/12/23 06:34:24;;;;;;;31.98;14.77;;;;;;;;;;6258470;28;20048;-58
2022/12/23 06:37:25;;;;;;;28.65;13.10;;;;;;;;;;6260132;28;20079;-54
2022/12/23 06:40:27;;;;;;;29.77;12.13;;;;;;;;;;6258163;28;20559;-57
2022/12/23 06:43:28;;;;;;;31.05;12.30;;;;;;;;;;6257722;28;20049;-58
2022/12/23 06:46:29;;;;;;;24.88;12.43;;;;;;;;;;6260654;28;20045;-60
2022/12/23 06:49:30;;;;;;;35.85;17.35;;;;;;;;;;6260299;28;20040;-50
2022/12/23 06:52:30;;;;;;;29.65;14.88;;;;;;;;;;6263642;28;20083;-55
2022/12/23 06:55:31;;;;;;;32.35;13.38;;;;;;;;;;6267130;28;20139;-56
2022/12/23 06:58:31;;;;;;;32.15;15.10;;;;;;;;;;6263736;28;20044;-54
2022/12/23 07:01:32;;;;;;;48.58;19.10;;;;;;;;;;6264248;28;20053;-59
2022/12/23 07:04:32;;;;;;;44.50;18.52;;;;;;;;;;6263579;28;20045;-60
2022/12/23 07:07:33;;;;;;;49.33;18.02;;;;;;;;;;6256033;28;20095;-63
2022/12/23 07:10:34;;;;;;;46.30;19.88;;;;;;;;;;6264817;28;20102;-56
2022/12/23 07:13:34;;;;;;;42.60;19.27;;;;;;;;;;6263788;28;20410;-59
2022/12/23 07:16:35;;;;;;;56.42;22.27;;;;;;;;;;6266659;28;20045;-58
2022/12/23 07:19:36;;;;;;;114.38;40.75;;;;;;;;;;6264858;28;20049;-55
2022/12/23 07:22:36;;;;;;;119.25;51.47;;;;;;;;;;6264435;28;20045;-58
2022/12/23 07:25:37;;;;;;;83.05;41.33;;;;;;;;;;6267843;28;20103;-58
2022/12/23 07:28:37;;;;;;;80.60;44.97;;;;;;;;;;6259828;28;20540;-57
2022/12/23 07:31:38;;;;;;;92.78;45.95;;;;;;;;;;6263672;28;20527;-56
2022/12/23 07:34:38;;;;;;;91.82;41.53;;;;;;;;;;6266421;28;20087;-58
2022/12/23 07:37:39;;;;;;;54.22;25.27;;;;;;;;;;6255235;28;20544;-62
2022/12/23 07:40:39;;;;;;;32.55;16.85;;;;;;;;;;6266200;28;20052;-60
2022/12/23 07:43:40;;;;;;;29.08;14.02;;;;;;;;;;6266604;28;20045;-60
2022/12/23 07:46:41;;;;;;;29.70;14.32;;;;;;;;;;6254196;28;20045;-55
2022/12/23 07:49:41;;;;;;;36.20;18.05;;;;;;;;;;6265947;28;20125;-54
2022/12/23 07:52:42;;;;;;;31.80;13.50;;;;;;;;;;6265287;28;20049;-52
2022/12/23 07:55:42;;;;;;;35.28;16.23;;;;;;;;;;6257650;28;20049;-54
2022/12/23 07:58:47;;;;;;;30.40;14.00;;;;;;;;;;6253493;28;20053;-51
2022/12/23 08:01:48;;;;;;;37.60;19.63;;;;;;;;;;6249535;28;20367;-64
2022/12/23 08:04:48;;;;;;;37.30;18.00;;;;;;;;;;6258194;28;20045;-50
2022/12/23 08:07:50;;;;;;;48.17;24.65;;;;;;;;;;6266900;28;20045;-52
2022/12/23 08:10:55;;;;;;;63.40;28.13;;;;;;;;;;6259780;28;20510;-53
2022/12/23 08:13:56;;;;;;;85.40;34.03;;;;;;;;;;6257565;28;20052;-50
2022/12/23 08:16:57;;;;;;;73.57;28.05;;;;;;;;;;6271468;28;20052;-53
2022/12/23 08:19:57;;;;;;;81.95;28.23;;;;;;;;;;6271626;28;20499;-51
2022/12/23 08:22:58;;;;;;;80.95;31.55;;;;;;;;;;6270296;28;20045;-54
2022/12/23 08:26:11;;;;;;;70.68;33.28;;;;;;;;;;6265495;28;20118;-53
2022/12/23 08:29:11;;;;;;;73.93;37.17;;;;;;;;;;6260660;28;20049;-50
2022/12/23 08:32:12;;;;;;;98.97;40.83;;;;;;;;;;6262915;28;20143;-50
2022/12/23 08:35:13;;;;;;;81.88;34.30;;;;;;;;;;6260607;28;20053;-52
2022/12/23 08:38:13;;;;;;;92.75;38.60;;;;;;;;;;6271325;28;20052;-50
2022/12/23 08:41:19;;;;;;;93.05;37.10;;;;;;;;;;6269994;28;20106;-65
2022/12/23 08:44:21;;;;;;;79.10;35.40;;;;;;;;;;6257608;28;20041;-51
2022/12/23 08:47:21;;;;;;;73.13;32.95;;;;;;;;;;6270690;28;20057;-52
2022/12/23 08:50:22;;;;;;;79.57;36.72;;;;;;;;;;6270778;28;20475;-52
2022/12/23 08:53:23;;;;;;;70.25;31.02;;;;;;;;;;6269003;28;20049;-52
2022/12/23 08:56:27;;;;;;;56.55;28.23;;;;;;;;;;6270574;28;20056;-55
2022/12/23 08:59:28;;;;;;;51.25;25.35;;;;;;;;;;6270175;28;20480;-53
2022/12/23 09:02:28;;;;;;;48.65;21.75;;;;;;;;;;6268902;28;20064;-50
2022/12/23 09:05:29;;;;;;;43.60;20.20;;;;;;;;;;6269895;28;20047;-51
2022/12/23 09:08:30;;;;;;;45.35;21.45;;;;;;;;;;6270379;28;20136;-52
2022/12/23 09:11:32;;;;;;;36.38;19.40;;;;;;;;;;6268047;28;20071;-52
2022/12/23 09:14:33;;;;;;;45.90;23.52;;;;;;;;;;6268805;28;20131;-50
2022/12/23 09:17:34;;;;;;;42.58;21.77;;;;;;;;;;6269530;28;20102;-49
2022/12/23 09:20:35;;;;;;;52.13;26.95;;;;;;;;;;6269980;28;20118;-51
2022/12/23 09:23:35;;;;;;;44.17;20.67;;;;;;;;;;6267973;28;20053;-50
2022/12/23 09:26:36;;;;;;;47.20;21.52;;;;;;;;;;6269301;28;20384;-62
2022/12/23 09:29:36;;;;;;;52.38;22.25;;;;;;;;;;6269555;28;20829;-50
2022/12/23 09:32:37;;;;;;;51.40;21.90;;;;;;;;;;6268092;28;20098;-52
2022/12/23 09:35:37;;;;;;;51.15;23.60;;;;;;;;;;6269659;28;20498;-49
2022/12/23 09:38:38;;;;;;;56.15;27.85;;;;;;;;;;6269122;28;20056;-50
2022/12/23 09:41:47;;;;;;;53.60;26.55;;;;;;;;;;6267071;28;20125;-53
2022/12/23 09:45:04;;;;;;;55.67;26.75;;;;;;;;;;6256661;28;20045;-53
2022/12/23 09:48:12;;;;;;;55.10;24.58;;;;;;;;;;6266111;28;20059;-59
2022/12/23 09:51:16;;;;;;;51.55;21.33;;;;;;;;;;6269766;28;20206;-52
2022/12/23 09:54:23;;;;;;;51.90;25.33;;;;;;;;;;6267507;28;20459;-63
2022/12/23 09:57:34;;;;;;;53.33;22.65;;;;;;;;;;6268729;28;20048;-56
2022/12/23 10:00:40;;;;;;;59.67;26.90;;;;;;;;;;6268222;28;20048;-57
2022/12/23 10:03:47;;;;;;;52.88;27.05;;;;;;;;;;6259896;28;20079;-55
2022/12/23 10:07:03;;;;;;;47.20;22.52;;;;;;;;;;6262536;28;20523;-55
2022/12/23 10:10:13;;;;;;;41.00;19.73;;;;;;;;;;6265806;28;20151;-58
2022/12/23 10:13:25;;;;;;;41.75;20.50;;;;;;;;;;6267297;28;20099;-55
2022/12/23 10:16:33;;;;;;;42.47;20.15;;;;;;;;;;6266733;28;20584;-66
2022/12/23 10:19:44;;;;;;;36.58;15.45;;;;;;;;;;6267023;28;20466;-51
2022/12/23 10:22:46;;;;;;;32.45;15.57;;;;;;;;;;6268713;28;20103;-51
2022/12/23 10:25:50;;;;;;;31.00;14.37;;;;;;;;;;6268152;28;20438;-62
2022/12/23 10:28:57;;;;;;;35.40;17.50;;;;;;;;;;6267048;28;20044;-50
2022/12/23 10:31:58;;;;;;;32.33;16.95;;;;;;;;;;6267252;28;20057;-51
2022/12/23 10:35:14;;;;;;;32.60;15.13;;;;;;;;;;6267571;28;20114;-52
2022/12/23 10:38:27;;;;;;;32.70;16.17;;;;;;;;;;6260803;28;20103;-52
2022/12/23 10:41:37;;;;;;;29.98;14.48;;;;;;;;;;6266619;28;20045;-55
2022/12/23 10:44:45;;;;;;;26.17;11.07;;;;;;;;;;6268109;28;20088;-52
2022/12/23 10:48:04;;;;;;;31.00;14.98;;;;;;;;;;6267679;28;20067;-52
2022/12/23 10:51:16;;;;;;;24.35;10.63;;;;;;;;;;6261571;28;20076;-51
2022/12/23 10:54:22;;;;;;;;;;;;;;;;;;6266359;28;20558;-50
2022/12/23 10:57:24;;;;;;;24.60;10.15;;;;;;;;;;6267622;28;20012;-61
2022/12/23 11:00:25;;;;;;;24.10;8.85;;;;;;;;;;6267919;28;20508;-53
2022/12/23 11:03:29;;;;;;;19.88;9.38;;;;;;;;;;6265635;28;20056;-56
2022/12/23 11:06:32;;;;;;;16.45;8.45;;;;;;;;;;6267741;28;20044;-59
2022/12/23 11:09:39;;;;;;;27.60;12.82;;;;;;;;;;6267179;28;20117;-53
2022/12/23 11:12:42;;;;;;;25.48;12.07;;;;;;;;;;6267230;28;20159;-57
2022/12/23 11:15:42;;;;;;;26.95;12.32;;;;;;;;;;6266738;28;20487;-55
2022/12/23 11:18:56;;;;;;;25.38;12.40;;;;;;;;;;6267338;28;20140;-58
2022/12/23 11:21:59;;;;;;;28.58;14.40;;;;;;;;;;6264872;28;20570;-53
2022/12/23 11:25:35;;;;;;;21.67;10.15;;;;;;;;;;6262658;28;20071;-60
2022/12/23 11:28:45;;;;;;;20.90;10.38;;;;;;;;;;6258580;28;20041;-58
2022/12/23 11:31:46;;;;;;;23.08;9.73;;;;;;;;;;6257149;28;20109;-57
2022/12/23 11:34:47;;;;;;;21.42;7.80;;;;;;;;;;6260651;28;20049;-62
2022/12/23 11:37:48;;;;;;;24.47;8.97;;;;;;;;;;6263790;28;20048;-61
2022/12/23 11:40:49;;;;;;;18.13;8.45;;;;;;;;;;6264648;28;20302;-62
2022/12/23 11:44:03;;;;;;;21.55;9.73;;;;;;;;;;6265684;28;20132;-59
2022/12/23 11:47:32;;;;;;;31.38;16.70;;;;;;;;;;6267228;28;20103;-63
2022/12/23 11:50:39;;;;;;;73.90;43.63;;;;;;;;;;6242802;28;20411;-59
2022/12/23 11:53:41;;;;;;;26.10;16.35;;;;;;;;;;6272032;28;20060;-53
2022/12/23 11:56:43;;;;;;;23.73;12.27;;;;;;;;;;6271538;28;20095;-62
2022/12/23 11:59:50;;;;;;;23.13;10.88;;;;;;;;;;6269495;28;20053;-56
2022/12/23 12:02:55;;;;;;;33.78;20.92;;;;;;;;;;6268805;28;20040;-56
2022/12/23 12:06:02;;;;;;;24.02;11.93;;;;;;;;;;6270111;28;20508;-63
2022/12/23 12:09:05;;;;;;;28.35;14.20;;;;;;;;;;6270265;28;20091;-60
2022/12/23 12:12:12;;;;;;;22.25;10.43;;;;;;;;;;6269225;28;20044;-52
2022/12/23 12:15:25;;;;;;;25.27;11.60;;;;;;;;;;6269327;28;20381;-62
2022/12/23 12:18:26;;;;;;;24.33;11.52;;;;;;;;;;6270294;28;20040;-62
2022/12/23 12:21:32;;;;;;;22.10;10.83;;;;;;;;;;6250934;28;20439;-58
2022/12/23 12:24:40;;;;;;;25.33;12.00;;;;;;;;;;6246199;28;20314;-58
2022/12/23 12:27:46;;;;;;;23.60;11.43;;;;;;;;;;6249185;28;20040;-62
2022/12/23 12:30:52;;;;;;;32.85;17.63;;;;;;;;;;6243153;28;20064;-55
2022/12/23 12:34:19;;;;;;;31.38;17.60;;;;;;;;;;6246794;28;20057;-50
2022/12/23 12:37:38;;;;;;;51.92;25.13;;;;;;;;;;6244902;28;20586;-53
2022/12/23 12:40:46;;;;;;;34.63;17.90;;;;;;;;;;6243944;28;20053;-53
2022/12/23 12:43:59;;;;;;;29.98;13.52;;;;;;;;;;6243548;28;20045;-52
2022/12/23 12:47:14;;;;;;;40.40;18.80;;;;;;;;;;6243593;28;20063;-51
2022/12/23 12:50:20;;;;;;;34.78;14.77;;;;;;;;;;6241907;28;20107;-52
2022/12/23 12:53:22;;;;;;;33.05;14.73;;;;;;;;;;6242157;28;20053;-52
2022/12/23 12:56:40;;;;;;;53.17;23.60;;;;;;;;;;6242866;28;20144;-53
2022/12/23 12:59:42;;;;;;;35.15;16.02;;;;;;;;;;6246834;28;20049;-56
2022/12/23 13:03:04;;;;;;;34.65;15.50;;;;;;;;;;6248532;28;20408;-55
2022/12/23 13:06:14;;;;;;;37.20;15.98;;;;;;;;;;6244705;28;20053;-54
2022/12/23 13:09:40;;;;;;;36.17;15.80;;;;;;;;;;6244895;28;20057;-49
2022/12/23 13:13:03;;;;;;;33.83;15.00;;;;;;;;;;6243153;28;20049;-55
2022/12/23 13:16:29;;;;;;;32.38;14.27;;;;;;;;;;6231273;28;20089;-53
2022/12/23 13:19:48;;;;;;;33.55;14.20;;;;;;;;;;6245690;28;20098;-55
2022/12/23 13:22:54;;;;;;;33.03;14.65;;;;;;;;;;6244132;28;20057;-55
2022/12/23 13:26:03;;;;;;;28.70;13.70;;;;;;;;;;6243105;28;20068;-57
2022/12/23 13:29:19;;;;;;;40.20;16.35;;;;;;;;;;6245500;28;20420;-56
2022/12/23 13:32:36;;;;;;;33.40;15.38;;;;;;;;;;6247596;28;20518;-51
2022/12/23 13:36:12;;;;;;;34.13;15.57;;;;;;;;;;6238560;28;20045;-75
2022/12/23 13:39:47;;;;;;;24.92;11.95;;;;;;;;;;6245011;28;20053;-57
2022/12/23 13:42:53;;;;;;;28.58;12.73;;;;;;;;;;6244029;28;20053;-55
2022/12/23 13:45:58;;;;;;;27.08;12.13;;;;;;;;;;6240612;28;20407;-54
2022/12/23 13:49:30;;;;;;;24.05;10.20;;;;;;;;;;6244265;28;20052;-55
2022/12/23 13:53:16;;;;;;;23.88;10.77;;;;;;;;;;6228862;28;20045;-60
2022/12/23 13:56:31;;;;;;;24.90;10.13;;;;;;;;;;6236667;28;20131;-55
2022/12/23 13:59:58;;;;;;;21.17;10.98;;;;;;;;;;6224447;28;20140;-55
2022/12/23 14:03:01;;;;;;;18.45;9.55;;;;;;;;;;6243574;28;20041;-56
2022/12/23 14:06:25;;;;;;;24.67;9.75;;;;;;;;;;6241093;28;20049;-54
2022/12/23 14:09:35;;;;;;;69.40;25.67;;;;;;;;;;6239631;28;20060;-64
2022/12/23 14:12:39;;;;;;;32.15;17.45;;;;;;;;;;6243712;28;20582;-55
2022/12/23 14:15:52;;;;;;;23.48;11.73;;;;;;;;;;6240499;28;20050;-52
2022/12/23 14:19:17;;;;;;;23.15;12.48;;;;;;;;;;6244368;28;20052;-58
2022/12/23 14:22:42;;;;;;;24.65;11.02;;;;;;;;;;6255051;28;20049;-57
2022/12/23 14:26:00;;;;;;;22.83;10.32;;;;;;;;;;6249989;28;20511;-54
2022/12/23 14:29:32;;;;;;;23.85;11.32;;;;;;;;;;6242363;28;20049;-58
2022/12/23 14:32:46;;;;;;;22.80;9.93;;;;;;;;;;6243140;28;20040;-59
2022/12/23 14:35:47;;;;;;;19.38;9.48;;;;;;;;;;6240221;28;20060;-54
2022/12/23 14:39:10;;;;;;;34.08;13.35;;;;;;;;;;6241425;28;20052;-60
2022/12/23 14:42:12;;;;;;;25.65;11.77;;;;;;;;;;6223436;28;20045;-61
2022/12/23 14:45:40;;;;;;;22.52;10.90;;;;;;;;;;6238298;28;20405;-58
2022/12/23 14:48:40;;;;;;;26.33;10.68;;;;;;;;;;6242881;28;20053;-60
2022/12/23 14:51:41;;;;;;;25.40;12.23;;;;;;;;;;6243218;28;20182;-56
2022/12/23 14:54:42;;;;;;;23.33;10.75;;;;;;;;;;6244462;28;20060;-62
2022/12/23 14:57:43;;;;;;;25.60;11.95;;;;;;;;;;6242082;28;20052;-59
2022/12/23 15:00:48;;;;;;;25.77;12.10;;;;;;;;;;6244805;28;20053;-59
2022/12/23 15:03:50;;;;;;;26.65;11.45;;;;;;;;;;6242828;28;20093;-61
2022/12/23 15:06:58;;;;;;;40.22;17.58;;;;;;;;;;6246588;28;20118;-58
2022/12/23 15:10:01;;;;;;;43.90;25.48;;;;;;;;;;6240352;28;20053;-56
2022/12/23 15:13:04;;;;;;;34.45;18.10;;;;;;;;;;6242880;28;20057;-55
2022/12/23 15:16:05;;;;;;;36.03;19.02;;;;;;;;;;6242527;28;20496;-57
2022/12/23 15:19:26;;;;;;;28.85;13.35;;;;;;;;;;6239722;28;20054;-55
2022/12/23 15:22:31;;;;;;;28.92;12.93;;;;;;;;;;6246440;28;20056;-52
2022/12/23 15:25:34;;;;;;;33.00;13.82;;;;;;;;;;6246523;28;20392;-57
2022/12/23 15:28:38;;;;;;;27.90;13.50;;;;;;;;;;6245642;28;20055;-57
2022/12/23 15:31:41;;;;;;;33.45;13.80;;;;;;;;;;6244471;28;20497;-57
2022/12/23 15:34:43;;;;;;;29.77;13.00;;;;;;;;;;6248395;28;20051;-53
2022/12/23 15:37:48;;;;;;;28.02;13.52;;;;;;;;;;6249134;28;20049;-58
2022/12/23 15:41:03;;;;;;;33.85;15.05;;;;;;;;;;6245374;28;20095;-60
2022/12/23 15:44:03;;;;;;;29.50;13.85;;;;;;;;;;6250340;28;20565;-52
2022/12/23 15:47:35;;;;;;;30.73;13.65;;;;;;;;;;6247493;28;20053;-54
2022/12/23 15:50:39;;;;;;;30.25;14.18;;;;;;;;;;6251649;28;20049;-54
2022/12/23 15:53:43;;;;;;;30.20;14.30;;;;;;;;;;6248499;28;20055;-56
2022/12/23 15:56:47;;;;;;;35.78;16.50;;;;;;;;;;6243312;28;20144;-58
2022/12/23 15:59:48;;;;;;;32.80;15.38;;;;;;;;;;6244762;28;20046;-55
2022/12/23 16:02:50;;;;;;;49.85;21.35;;;;;;;;;;6244123;28;20111;-54
2022/12/23 16:05:51;;;;;;;32.35;14.90;;;;;;;;;;6241639;28;20408;-52
2022/12/23 16:09:02;;;;;;;61.03;28.50;;;;;;;;;;6227512;28;20103;-52
2022/12/23 16:12:04;;;;;;;34.70;15.75;;;;;;;;;;6243295;28;20052;-52
2022/12/23 16:15:31;;;;;;;88.70;32.70;;;;;;;;;;6241890;28;20042;-52
2022/12/23 16:18:41;;;;;;;43.25;18.73;;;;;;;;;;6247143;28;20107;-53
2022/12/23 16:21:41;;;;;;;109.32;37.63;;;;;;;;;;6243593;28;20886;-51
2022/12/23 16:24:49;;;;;;;75.40;32.85;;;;;;;;;;6244675;28;20053;-49
2022/12/23 16:27:57;;;;;;;49.58;21.52;;;;;;;;;;6244892;28;20057;-49
2022/12/23 16:30:58;;;;;;;65.25;29.77;;;;;;;;;;6245684;28;20060;-49
2022/12/23 16:34:02;;;;;;;68.13;31.48;;;;;;;;;;6240878;28;20488;-52
2022/12/23 16:37:03;;;;;;;54.45;21.80;;;;;;;;;;6244893;28;20057;-50
2022/12/23 16:40:12;;;;;;;59.25;24.40;;;;;;;;;;6242350;28;20108;-50
2022/12/23 16:43:14;;;;;;;61.75;24.25;;;;;;;;;;6242984;28;20053;-58
2022/12/23 16:46:16;;;;;;;61.05;24.25;;;;;;;;;;6241326;28;20068;-50
2022/12/23 16:49:20;;;;;;;51.83;21.67;;;;;;;;;;6241164;28;20060;-51
2022/12/23 16:52:21;;;;;;;53.28;22.83;;;;;;;;;;6244945;28;20057;-54
2022/12/23 16:55:21;;;;;;;53.00;22.50;;;;;;;;;;6243403;28;20045;-53
2022/12/23 16:58:22;;;;;;;55.47;24.17;;;;;;;;;;6242681;28;20049;-54
2022/12/23 17:01:25;;;;;;;58.35;25.20;;;;;;;;;;6245577;28;20059;-53
2022/12/23 17:04:25;;;;;;;61.83;26.08;;;;;;;;;;6243842;28;20053;-58
2022/12/23 17:07:26;;;;;;;67.63;27.23;;;;;;;;;;6243125;28;20407;-53
2022/12/23 17:10:26;;;;;;;60.50;26.65;;;;;;;;;;6240876;28;20576;-52
2022/12/23 17:13:27;;;;;;;53.33;23.85;;;;;;;;;;6243500;28;20057;-52
2022/12/23 17:16:27;;;;;;;57.13;24.80;;;;;;;;;;6243376;28;20412;-51
2022/12/23 17:19:30;;;;;;;50.10;21.25;;;;;;;;;;6245884;28;20053;-54
2022/12/23 17:22:32;;;;;;;48.55;20.38;;;;;;;;;;6247460;28;20077;-54
2022/12/23 17:25:33;;;;;;;47.88;21.50;;;;;;;;;;6240785;28;20048;-50
2022/12/23 17:28:33;;;;;;;65.95;26.73;;;;;;;;;;6245153;28;20049;-52
2022/12/23 17:31:34;;;;;;;87.32;42.13;;;;;;;;;;6241868;28;20513;-53
2022/12/23 17:34:34;;;;;;;56.17;26.10;;;;;;;;;;6244445;28;20060;-52
2022/12/23 17:37:37;;;;;;;67.25;32.28;;;;;;;;;;6242607;28;20144;-53
2022/12/23 17:40:37;;;;;;;;;;;;;;;;;;6249215;28;20045;-51
2022/12/23 17:43:38;;;;;;;51.33;26.85;;;;;;;;;;6246170;28;19979;-51
2022/12/23 17:46:39;;;;;;;49.10;24.15;;;;;;;;;;6245981;28;20057;-51
2022/12/23 17:49:40;;;;;;;46.50;21.60;;;;;;;;;;6244659;28;20075;-51
2022/12/23 17:52:40;;;;;;;44.03;19.52;;;;;;;;;;6247419;28;20076;-54
2022/12/23 17:55:41;;;;;;;40.88;17.63;;;;;;;;;;6244576;28;20059;-49
2022/12/23 17:58:43;;;;;;;43.47;17.65;;;;;;;;;;6246572;28;20486;-50
2022/12/23 18:01:44;;;;;;;40.05;16.63;;;;;;;;;;6248552;28;20049;-50
2022/12/23 18:04:44;;;;;;;37.15;16.35;;;;;;;;;;6244603;28;20059;-55
2022/12/23 18:07:45;;;;;;;38.75;15.93;;;;;;;;;;6245544;28;20252;-55
2022/12/23 18:10:45;;;;;;;37.72;16.33;;;;;;;;;;6242440;28;20068;-52
2022/12/23 18:13:47;;;;;;;37.08;16.55;;;;;;;;;;6245380;28;20602;-51
2022/12/23 18:16:48;;;;;;;38.90;17.33;;;;;;;;;;6242445;28;20061;-51
2022/12/23 18:19:48;;;;;;;41.80;17.35;;;;;;;;;;6242687;28;20511;-51
2022/12/23 18:22:52;;;;;;;53.22;25.48;;;;;;;;;;6246690;28;20064;-52
2022/12/23 18:25:54;;;;;;;74.90;37.28;;;;;;;;;;6245116;28;20140;-51
2022/12/23 18:28:55;;;;;;;44.75;20.13;;;;;;;;;;6250310;28;20060;-50
2022/12/23 18:31:55;;;;;;;42.88;19.75;;;;;;;;;;6244917;28;20740;-51